createdAt,value
2022-09-21T00:01:29.402Z,1.30
2022-09-21T00:04:04.644Z,1.13
2022-09-21T00:06:35.396Z,1.67
2022-09-21T00:09:05.127Z,1.60
2022-09-21T00:11:34.184Z,1.83
2022-09-21T00:14:07.341Z,2.70
2022-09-21T00:16:35.671Z,1.75
2022-09-21T00:19:03.788Z,2.55
2022-09-21T00:21:31.570Z,1.45
2022-09-21T00:24:00.585Z,1.90
2022-09-21T00:26:28.616Z,1.25
2022-09-21T00:28:58.364Z,1.50
2022-09-21T00:31:27.279Z,1.73
2022-09-21T00:33:55.268Z,1.48
2022-09-21T00:36:25.256Z,1.23
2022-09-21T00:39:01.610Z,1.60
2022-09-21T00:41:31.516Z,1.73
2022-09-21T00:44:17.503Z,1.67
2022-09-21T00:46:46.936Z,1.30
2022-09-21T00:49:15.823Z,1.83
2022-09-21T00:51:44.123Z,1.40
2022-09-21T00:54:18.104Z,1.60
2022-09-21T00:56:46.061Z,1.20
2022-09-21T00:59:18.945Z,1.23
2022-09-21T01:01:49.280Z,1.00
2022-09-21T01:04:18.961Z,1.95
2022-09-21T01:06:47.899Z,1.55
2022-09-21T01:09:16.420Z,1.10
2022-09-21T01:12:16.321Z,1.10
2022-09-21T01:14:54.769Z,1.30
2022-09-21T01:17:37.885Z,1.20
2022-09-21T01:20:27.922Z,1.15
2022-09-21T01:23:04.529Z,1.25
2022-09-21T01:26:05.544Z,1.00
2022-09-21T01:28:59.681Z,1.20
2022-09-21T01:31:33.080Z,1.42
2022-09-21T01:34:07.764Z,1.00
2022-09-21T01:36:37.298Z,1.15
2022-09-21T01:39:11.181Z,1.05
2022-09-21T01:41:41.539Z,1.33
2022-09-21T01:44:14.939Z,1.70
2022-09-21T01:46:42.598Z,1.05
2022-09-21T01:49:17.796Z,1.42
2022-09-21T01:51:52.445Z,2.20
2022-09-21T01:54:25.328Z,0.98
2022-09-21T01:57:01.989Z,1.35
2022-09-21T01:59:55.076Z,1.15
2022-09-21T02:02:33.097Z,1.77
2022-09-21T02:05:03.247Z,1.15
2022-09-21T02:07:31.858Z,1.15
2022-09-21T02:10:00.318Z,1.08
2022-09-21T02:12:27.774Z,1.23
2022-09-21T02:14:56.340Z,1.40
2022-09-21T02:18:01.091Z,1.40
2022-09-21T02:20:33.444Z,1.33
2022-09-21T02:25:47.399Z,1.67
2022-09-21T02:28:36.753Z,1.42
2022-09-21T02:31:22.417Z,1.20
2022-09-21T02:34:02.765Z,1.10
2022-09-21T02:36:49.008Z,1.25
2022-09-21T02:39:27.793Z,1.25
2022-09-21T02:42:28.028Z,1.20
2022-09-21T02:45:08.593Z,1.27
2022-09-21T02:48:12.200Z,1.50
2022-09-21T02:50:47.911Z,1.55
2022-09-21T02:53:21.950Z,1.52
2022-09-21T02:55:56.209Z,1.40
2022-09-21T02:58:27.047Z,1.40
2022-09-21T03:00:59.269Z,1.30
2022-09-21T03:05:56.267Z,1.50
2022-09-21T03:08:23.775Z,1.35
2022-09-21T03:10:51.250Z,1.63
2022-09-21T03:13:19.379Z,1.30
2022-09-21T03:15:47.864Z,1.67
2022-09-21T03:18:15.341Z,1.98
2022-09-21T03:20:46.459Z,1.77
2022-09-21T03:23:14.449Z,2.28
2022-09-21T03:25:45.060Z,2.65
2022-09-21T03:28:13.800Z,2.42
2022-09-21T03:30:41.979Z,2.08
2022-09-21T03:33:09.668Z,2.03
2022-09-21T03:35:37.169Z,1.70
2022-09-21T03:38:04.713Z,2.15
2022-09-21T03:40:32.706Z,3.65
2022-09-21T03:43:00.209Z,1.80
2022-09-21T03:45:28.202Z,1.90
2022-09-21T03:48:00.139Z,1.85
2022-09-21T03:50:29.251Z,3.28
2022-09-21T03:52:57.483Z,2.38
2022-09-21T03:55:26.049Z,2.70
2022-09-21T03:57:53.613Z,1.65
2022-09-21T04:00:21.488Z,2.03
2022-09-21T04:02:49.125Z,3.00
2022-09-21T04:05:17.436Z,3.40
2022-09-21T04:07:46.676Z,2.22
2022-09-21T04:10:17.468Z,3.08
2022-09-21T04:12:45.973Z,2.92
2022-09-21T04:15:19.420Z,2.53
2022-09-21T04:17:48.117Z,1.95
2022-09-21T04:20:15.609Z,3.28
2022-09-21T04:22:44.762Z,2.38
2022-09-21T04:25:12.747Z,3.22
2022-09-21T04:27:40.858Z,2.72
2022-09-21T04:30:09.597Z,3.47
2022-09-21T04:32:37.045Z,2.65
2022-09-21T04:35:05.133Z,2.90
2022-09-21T04:37:32.612Z,2.53
2022-09-21T04:40:00.226Z,2.63
2022-09-21T04:42:29.162Z,2.83
2022-09-21T04:44:57.185Z,2.88
2022-09-21T04:47:25.241Z,2.47
2022-09-21T04:49:53.780Z,2.45
2022-09-21T04:52:21.336Z,3.05
2022-09-21T04:54:48.844Z,2.65
2022-09-21T04:57:16.593Z,2.30
2022-09-21T04:59:44.080Z,2.50
2022-09-21T05:02:11.991Z,2.05
2022-09-21T05:04:39.449Z,2.47
2022-09-21T05:07:06.928Z,1.98
2022-09-21T05:09:52.032Z,1.67
2022-09-21T05:12:19.486Z,1.88
2022-09-21T05:14:46.953Z,1.83
2022-09-21T05:17:14.454Z,1.85
2022-09-21T05:19:42.038Z,2.30
2022-09-21T05:22:09.595Z,3.03
2022-09-21T05:24:37.017Z,2.10
2022-09-21T05:27:04.574Z,2.70
2022-09-21T05:29:32.388Z,1.90
2022-09-21T05:32:09.336Z,1.73
2022-09-21T05:35:00.243Z,2.03
2022-09-21T05:37:38.821Z,2.90
2022-09-21T05:40:07.467Z,1.98
2022-09-21T05:42:35.402Z,2.28
2022-09-21T05:45:03.376Z,2.40
2022-09-21T05:47:47.301Z,2.33
2022-09-21T05:50:23.636Z,2.65
2022-09-21T05:53:00.184Z,2.47
2022-09-21T05:55:42.927Z,3.95
2022-09-21T05:58:43.975Z,2.67
2022-09-21T06:01:21.978Z,3.00
2022-09-21T06:03:50.170Z,1.92
2022-09-21T06:06:21.630Z,2.20
2022-09-21T06:08:49.096Z,2.53
2022-09-21T06:11:16.857Z,2.58
2022-09-21T06:13:44.330Z,2.42
2022-09-21T06:16:11.936Z,2.03
2022-09-21T06:18:40.273Z,2.72
2022-09-21T06:21:08.467Z,3.20
2022-09-21T06:23:36.454Z,2.63
2022-09-21T06:26:04.110Z,2.45
2022-09-21T06:28:31.734Z,2.88
2022-09-21T06:30:59.991Z,2.40
2022-09-21T06:33:27.525Z,2.42
2022-09-21T06:35:57.142Z,2.28
2022-09-21T06:38:26.084Z,2.55
2022-09-21T06:40:54.370Z,2.50
2022-09-21T06:43:22.714Z,2.75
2022-09-21T06:45:58.629Z,5.00
2022-09-21T06:48:27.970Z,2.40
2022-09-21T06:51:03.265Z,2.50
2022-09-21T06:53:32.411Z,3.47
2022-09-21T06:56:08.462Z,2.58
2022-09-21T06:58:37.584Z,2.20
2022-09-21T07:01:15.069Z,2.90
2022-09-21T07:03:44.135Z,2.30
2022-09-21T07:06:14.173Z,1.90
2022-09-21T07:11:29.936Z,2.42
2022-09-21T07:13:58.347Z,2.25
2022-09-21T07:16:25.938Z,1.70
2022-09-21T07:18:53.457Z,1.73
2022-09-21T07:21:20.950Z,1.65
2022-09-21T07:23:48.497Z,1.23
2022-09-21T07:26:16.167Z,1.70
2022-09-21T07:28:43.768Z,1.50
2022-09-21T07:31:17.545Z,1.70
2022-09-21T07:33:47.121Z,1.55
2022-09-21T07:36:14.672Z,1.30
2022-09-21T07:38:44.282Z,1.08
2022-09-21T07:41:14.173Z,0.98
2022-09-21T07:43:42.480Z,1.02
2022-09-21T07:46:12.055Z,0.60
2022-09-21T07:48:40.025Z,0.73
2022-09-21T07:51:10.313Z,0.65
2022-09-21T07:53:39.124Z,0.88
2022-09-21T07:56:09.770Z,0.60
2022-09-21T07:58:56.269Z,1.48
2022-09-21T08:01:25.099Z,0.50
2022-09-21T08:03:54.123Z,0.60
2022-09-21T08:06:22.861Z,3.17
2022-09-21T08:08:55.261Z,0.82
2022-09-21T08:11:25.939Z,0.70
2022-09-21T08:13:55.939Z,0.70
2022-09-21T08:16:23.753Z,0.43
2022-09-21T08:18:51.400Z,0.82
2022-09-21T08:21:20.322Z,0.50
2022-09-21T08:23:49.236Z,0.38
2022-09-21T08:26:19.700Z,0.47
2022-09-21T08:28:52.594Z,0.50
2022-09-21T08:31:22.514Z,0.50
2022-09-21T08:33:50.997Z,0.80
2022-09-21T08:36:20.086Z,0.52
2022-09-21T08:38:48.041Z,0.45
2022-09-21T08:41:21.477Z,0.40
2022-09-21T08:44:01.166Z,0.60
2022-09-21T08:46:31.748Z,0.43
2022-09-21T08:49:12.431Z,0.50
2022-09-21T08:51:57.437Z,0.28
2022-09-21T08:54:34.035Z,0.40
2022-09-21T08:57:06.218Z,0.55
2022-09-21T08:59:35.708Z,0.40
2022-09-21T09:02:25.101Z,0.50
2022-09-21T09:05:04.558Z,0.60
2022-09-21T09:08:00.753Z,0.30
2022-09-21T09:10:31.151Z,0.40
2022-09-21T09:13:23.186Z,0.40
2022-09-21T09:16:16.886Z,0.40
2022-09-21T09:18:50.743Z,0.17
2022-09-21T09:21:31.473Z,0.75
2022-09-21T09:24:07.327Z,0.40
2022-09-21T09:26:43.618Z,0.35
2022-09-21T09:29:39.351Z,0.30
2022-09-21T09:32:14.715Z,0.88
2022-09-21T09:34:54.651Z,0.40
2022-09-21T09:37:30.252Z,0.30
2022-09-21T09:40:01.268Z,0.60
2022-09-21T09:42:37.301Z,0.50
2022-09-21T09:45:24.912Z,0.50
2022-09-21T09:48:18.981Z,0.75
2022-09-21T09:50:47.298Z,0.80
2022-09-21T09:53:21.339Z,0.40
2022-09-21T09:55:52.200Z,0.35
2022-09-21T09:58:20.918Z,0.25
2022-09-21T10:00:53.179Z,0.30
2022-09-21T10:03:30.320Z,0.30
2022-09-21T10:05:57.840Z,1.13
2022-09-21T10:08:43.039Z,0.63
2022-09-21T10:11:13.015Z,1.73
2022-09-21T10:13:44.963Z,0.60
2022-09-21T10:18:58.839Z,0.20
2022-09-21T10:21:38.806Z,0.30
2022-09-21T10:24:18.131Z,0.20
2022-09-21T10:26:54.439Z,0.40
2022-09-21T10:29:25.350Z,0.20
2022-09-21T10:32:19.025Z,0.40
2022-09-21T10:35:15.019Z,0.50
2022-09-21T10:37:45.513Z,0.80
2022-09-21T10:40:19.086Z,0.47
2022-09-21T10:42:48.997Z,0.20
2022-09-21T10:45:19.105Z,0.45
2022-09-21T10:47:52.629Z,0.30
2022-09-21T10:50:31.163Z,0.40
2022-09-21T10:53:10.549Z,0.30
2022-09-21T10:55:58.363Z,0.77
2022-09-21T10:58:33.008Z,0.30
2022-09-21T11:01:24.791Z,0.20
2022-09-21T11:04:17.746Z,1.02
2022-09-21T11:06:50.004Z,0.47
2022-09-21T11:09:30.919Z,0.30
2022-09-21T11:12:18.730Z,0.22
2022-09-21T11:15:13.158Z,0.60
2022-09-21T11:17:49.322Z,0.40
2022-09-21T11:20:36.713Z,0.90
2022-09-21T11:23:27.932Z,0.32
2022-09-21T11:26:11.641Z,0.20
2022-09-21T11:28:42.423Z,0.20
2022-09-21T11:31:53.769Z,0.30
2022-09-21T11:34:31.217Z,0.25
2022-09-21T11:37:13.636Z,0.20
2022-09-21T11:40:16.024Z,0.30
2022-09-21T11:45:25.346Z,0.68
2022-09-21T11:48:17.786Z,0.30
2022-09-21T11:51:00.150Z,0.40
2022-09-21T11:53:33.407Z,0.30
2022-09-21T11:56:23.887Z,0.30
2022-09-21T11:59:06.890Z,0.22
2022-09-21T12:01:37.625Z,0.40
2022-09-21T12:04:13.836Z,0.40
2022-09-21T12:06:54.644Z,0.25
2022-09-21T12:09:53.634Z,0.28
2022-09-21T12:12:38.766Z,0.30
2022-09-21T12:15:27.095Z,0.30
2022-09-21T12:18:12.902Z,0.28
2022-09-21T12:20:59.381Z,0.32
2022-09-21T12:23:45.571Z,0.38
2022-09-21T12:26:17.427Z,0.52
2022-09-21T12:31:39.371Z,0.20
2022-09-21T12:34:36.395Z,0.43
2022-09-21T12:37:20.024Z,0.20
2022-09-21T12:39:54.555Z,0.30
2022-09-21T12:42:49.598Z,1.92
2022-09-21T12:45:25.440Z,0.28
2022-09-21T12:48:07.795Z,0.30
2022-09-21T12:50:55.646Z,0.20
2022-09-21T12:53:29.296Z,0.30
2022-09-21T12:56:22.482Z,0.40
2022-09-21T12:59:13.209Z,0.25
2022-09-21T13:01:57.136Z,0.40
2022-09-21T13:04:49.875Z,0.35
2022-09-21T13:10:15.374Z,0.60
2022-09-21T13:12:45.703Z,0.30
2022-09-21T13:15:21.915Z,0.30
2022-09-21T13:17:59.972Z,0.43
2022-09-21T13:20:28.286Z,0.68
2022-09-21T13:23:01.255Z,0.30
2022-09-21T13:25:32.610Z,0.20
2022-09-21T13:28:04.249Z,0.28
2022-09-21T13:30:46.358Z,0.20
2022-09-21T13:33:19.738Z,0.68
2022-09-21T13:36:00.393Z,0.30
2022-09-21T13:38:30.950Z,0.40
2022-09-21T13:41:04.614Z,0.50
2022-09-21T13:44:04.385Z,0.28
2022-09-21T13:46:36.090Z,0.25
2022-09-21T13:49:06.176Z,0.38
2022-09-21T13:51:34.365Z,0.10
2022-09-21T13:54:04.628Z,0.10
2022-09-21T13:56:33.532Z,0.30
2022-09-21T13:59:01.171Z,0.10
2022-09-21T14:01:52.380Z,0.35
2022-09-21T14:04:50.784Z,0.20
2022-09-21T14:07:19.477Z,0.20
2022-09-21T14:10:02.768Z,0.30
2022-09-21T14:12:44.361Z,0.30
2022-09-21T14:15:33.758Z,0.30
2022-09-21T14:18:37.774Z,0.57
2022-09-21T14:21:09.581Z,0.40
2022-09-21T14:23:38.776Z,0.40
2022-09-21T14:26:41.582Z,0.28
2022-09-21T14:29:25.213Z,0.40
2022-09-21T14:32:00.582Z,0.32
2022-09-21T14:34:40.403Z,0.30
2022-09-21T14:37:40.441Z,0.20
2022-09-21T14:40:24.651Z,0.30
2022-09-21T14:42:55.479Z,0.40
2022-09-21T14:45:47.148Z,0.65
2022-09-21T14:48:22.189Z,0.30
2022-09-21T14:51:11.582Z,0.25
2022-09-21T14:53:57.243Z,0.38
2022-09-21T14:56:36.898Z,0.40
2022-09-21T14:59:52.163Z,0.57
2022-09-21T15:02:20.894Z,0.22
2022-09-21T15:05:01.978Z,0.38
2022-09-21T15:08:19.630Z,0.25
2022-09-21T15:11:02.921Z,0.30
2022-09-21T15:13:42.558Z,0.30
2022-09-21T15:16:51.434Z,0.52
2022-09-21T15:19:20.172Z,0.20
2022-09-21T15:21:50.105Z,0.57
2022-09-21T15:24:32.590Z,0.52
2022-09-21T15:27:11.162Z,0.30
2022-09-21T15:29:39.517Z,0.30
2022-09-21T15:32:08.340Z,0.32
2022-09-21T15:34:35.967Z,0.22
2022-09-21T15:37:16.949Z,0.35
2022-09-21T15:39:44.971Z,0.30
2022-09-21T15:42:19.885Z,0.20
2022-09-21T15:44:50.552Z,0.30
2022-09-21T15:47:26.045Z,0.25
2022-09-21T15:49:56.855Z,0.35
2022-09-21T15:52:40.037Z,0.65
2022-09-21T15:55:17.889Z,0.30
2022-09-21T15:57:45.680Z,0.30
2022-09-21T16:00:16.338Z,0.20
2022-09-21T16:02:53.314Z,0.50
2022-09-21T16:05:23.476Z,0.90
2022-09-21T16:07:51.687Z,0.65
2022-09-21T16:10:31.407Z,0.47
2022-09-21T16:13:25.155Z,0.95
2022-09-21T16:16:04.568Z,0.60
2022-09-21T16:18:41.267Z,0.73
2022-09-21T16:21:32.394Z,0.50
2022-09-21T16:24:12.314Z,0.68
2022-09-21T16:26:41.037Z,0.60
2022-09-21T16:29:25.466Z,0.82
2022-09-21T16:32:19.252Z,0.38
2022-09-21T16:34:48.600Z,1.45
2022-09-21T16:37:29.482Z,0.60
2022-09-21T16:40:00.699Z,0.45
2022-09-21T16:42:32.710Z,0.70
2022-09-21T16:45:01.159Z,0.55
2022-09-21T16:47:29.818Z,0.40
2022-09-21T16:50:01.748Z,0.60
2022-09-21T16:52:30.824Z,0.55
2022-09-21T16:54:58.898Z,0.60
2022-09-21T16:57:27.766Z,0.68
2022-09-21T16:59:55.506Z,0.50
2022-09-21T17:02:23.531Z,0.70
2022-09-21T17:04:51.075Z,1.10
2022-09-21T17:07:18.662Z,0.70
2022-09-21T17:09:47.823Z,0.50
2022-09-21T17:12:18.548Z,0.50
2022-09-21T17:14:47.372Z,0.70
2022-09-21T17:17:25.280Z,0.50
2022-09-21T17:19:54.251Z,0.60
2022-09-21T17:22:22.357Z,1.10
2022-09-21T17:24:54.731Z,0.60
2022-09-21T17:27:25.279Z,0.63
2022-09-21T17:29:55.076Z,0.60
2022-09-21T17:32:24.490Z,0.70
2022-09-21T17:35:02.622Z,1.30
2022-09-21T17:37:30.077Z,0.50
2022-09-21T17:39:57.648Z,0.47
2022-09-21T17:42:25.861Z,0.65
2022-09-21T17:45:21.801Z,0.50
2022-09-21T17:47:50.356Z,0.60
2022-09-21T17:50:22.923Z,0.68
2022-09-21T17:53:08.361Z,1.00
2022-09-21T17:55:36.374Z,0.70
2022-09-21T17:58:17.747Z,0.63
2022-09-21T18:01:00.500Z,0.88
2022-09-21T18:03:30.336Z,0.65
2022-09-21T18:06:00.692Z,1.05
2022-09-21T18:08:30.076Z,0.57
2022-09-21T18:11:04.299Z,0.77
2022-09-21T18:13:47.146Z,0.60
2022-09-21T18:16:28.054Z,0.65
2022-09-21T18:19:03.156Z,0.85
2022-09-21T18:21:33.144Z,1.00
2022-09-21T18:24:31.754Z,0.90
2022-09-21T18:27:01.747Z,1.33
2022-09-21T18:29:41.088Z,1.50
2022-09-21T18:32:15.000Z,1.40
2022-09-21T18:35:02.379Z,1.02
2022-09-21T18:37:35.780Z,1.88
2022-09-21T18:40:34.194Z,1.45
2022-09-21T18:43:27.501Z,0.90
2022-09-21T18:46:03.989Z,0.77
2022-09-21T18:48:52.942Z,0.70
2022-09-21T18:51:38.719Z,0.82
2022-09-21T18:54:06.812Z,0.80
2022-09-21T18:56:38.099Z,0.88
2022-09-21T18:59:07.087Z,0.90
2022-09-21T19:01:34.901Z,1.00
2022-09-21T19:04:02.823Z,0.80
2022-09-21T19:06:39.227Z,0.98
2022-09-21T19:09:22.869Z,1.23
2022-09-21T19:12:09.122Z,1.10
2022-09-21T19:15:03.289Z,1.42
2022-09-21T19:17:42.862Z,1.48
2022-09-21T19:20:10.770Z,1.00
2022-09-21T19:22:55.964Z,0.80
2022-09-21T19:25:35.579Z,1.55
2022-09-21T19:28:28.838Z,1.15
2022-09-21T19:31:03.353Z,1.23
2022-09-21T19:33:50.822Z,1.33
2022-09-21T19:36:19.166Z,1.60
2022-09-21T19:38:46.791Z,1.23
2022-09-21T19:41:38.234Z,1.40
2022-09-21T19:44:32.538Z,0.80
2022-09-21T19:47:18.373Z,1.23
2022-09-21T19:49:53.922Z,1.15
2022-09-21T19:52:31.290Z,1.83
2022-09-21T19:55:16.978Z,1.70
2022-09-21T19:58:02.261Z,1.38
2022-09-21T20:00:30.166Z,2.13
2022-09-21T20:03:13.719Z,1.42
2022-09-21T20:06:01.961Z,1.83
2022-09-21T20:08:42.557Z,1.55
2022-09-21T20:11:36.784Z,1.63
2022-09-21T20:14:35.571Z,1.65
2022-09-21T20:17:10.542Z,1.88
2022-09-21T20:20:05.657Z,2.10
2022-09-21T20:22:39.013Z,2.10
2022-09-21T20:25:09.810Z,2.28
2022-09-21T20:27:45.460Z,2.38
2022-09-21T20:30:15.345Z,3.40
2022-09-21T20:32:46.055Z,2.67
2022-09-21T20:35:31.861Z,3.33
2022-09-21T20:38:02.533Z,3.40
2022-09-21T20:40:32.111Z,3.70
2022-09-21T20:43:00.910Z,2.92
2022-09-21T20:45:29.479Z,2.90
2022-09-21T20:48:12.886Z,3.58
2022-09-21T20:50:46.014Z,2.88
2022-09-21T20:53:13.994Z,3.85
2022-09-21T20:55:43.726Z,3.13
2022-09-21T20:58:12.977Z,2.88
2022-09-21T21:00:40.754Z,2.55
2022-09-21T21:03:08.227Z,2.65
2022-09-21T21:05:35.674Z,2.65
2022-09-21T21:08:04.681Z,3.30
2022-09-21T21:10:33.289Z,2.30
2022-09-21T21:13:01.462Z,2.75
2022-09-21T21:15:29.218Z,3.10
2022-09-21T21:17:56.818Z,3.05
2022-09-21T21:20:24.490Z,3.05
2022-09-21T21:22:53.660Z,2.88
2022-09-21T21:25:21.198Z,2.33
2022-09-21T21:27:48.842Z,2.83
2022-09-21T21:30:16.606Z,3.03
2022-09-21T21:32:44.168Z,2.28
2022-09-21T21:35:11.677Z,2.13
2022-09-21T21:37:40.328Z,2.72
2022-09-21T21:40:09.072Z,3.53
2022-09-21T21:42:36.577Z,3.03
2022-09-21T21:45:05.961Z,2.92
2022-09-21T21:47:41.388Z,2.03
2022-09-21T21:50:10.861Z,2.25
2022-09-21T21:52:38.968Z,2.22
2022-09-21T21:55:07.464Z,2.05
2022-09-21T21:57:34.930Z,1.85
2022-09-21T22:00:02.693Z,2.28
2022-09-21T22:02:30.276Z,2.38
2022-09-21T22:04:57.796Z,2.13
2022-09-21T22:07:25.351Z,3.13
2022-09-21T22:09:52.816Z,2.50
2022-09-21T22:12:20.287Z,2.65
2022-09-21T22:14:47.746Z,2.63
2022-09-21T22:17:15.714Z,2.85
2022-09-21T22:19:43.586Z,2.63
2022-09-21T22:22:11.098Z,2.25
2022-09-21T22:24:38.685Z,1.95
2022-09-21T22:27:06.201Z,2.65
2022-09-21T22:29:33.881Z,1.70
2022-09-21T22:32:01.515Z,2.55
2022-09-21T22:34:29.120Z,2.10
2022-09-21T22:36:56.595Z,1.63
2022-09-21T22:39:24.194Z,1.98
2022-09-21T22:41:51.737Z,2.05
2022-09-21T22:44:19.187Z,3.83
2022-09-21T22:46:46.657Z,1.63
2022-09-21T22:49:14.105Z,1.98
2022-09-21T22:51:41.537Z,2.10
2022-09-21T22:54:08.993Z,1.80
2022-09-21T22:56:36.457Z,2.00
2022-09-21T22:59:05.854Z,1.83
2022-09-21T23:01:36.448Z,1.48
2022-09-21T23:04:10.841Z,2.15
2022-09-21T23:06:40.418Z,1.73
2022-09-21T23:09:13.281Z,2.65
2022-09-21T23:11:43.237Z,1.60
2022-09-21T23:14:12.454Z,2.22
2022-09-21T23:16:40.059Z,1.48
2022-09-21T23:19:15.243Z,1.50
2022-09-21T23:21:49.360Z,1.30
2022-09-21T23:24:17.378Z,1.85
2022-09-21T23:26:45.545Z,1.60
2022-09-21T23:29:15.493Z,1.55
2022-09-21T23:31:45.497Z,1.80
2022-09-21T23:34:13.739Z,1.98
2022-09-21T23:36:42.523Z,1.45
2022-09-21T23:39:12.989Z,1.50
2022-09-21T23:41:40.717Z,1.38
2022-09-21T23:44:08.554Z,1.30
2022-09-21T23:46:38.041Z,1.50
2022-09-21T23:49:05.961Z,1.60
2022-09-21T23:51:34.191Z,1.80
2022-09-21T23:54:01.901Z,1.40
2022-09-21T23:56:30.259Z,1.60
2022-09-21T23:58:57.985Z,2.00
